»·PEaware :: N43PC KGPI-KGEG

N43PC :: KGPI-KGEG

FLIGHT INFORMATION

Flight Status: Arrived
Operator: Privately registered:
United States
More flights under this callsign
Pilot: Ryan B. (8502)
Aircraft: BEECH AIRCRAFT BEECH AIRLINER
(B190)
More flights by this aircraft type
Origin: KGPI Glacier Park Intl
United States
Destination: KGEG Spokane Intl
United States
More flights between these airports :: More routes between these airports
Route: +SKOTT2 SKOTT EYESE V448 GEG
File this flight plan on PilotEdge
Remarks:
Altitude:
(Current/Filed)
20,000ft
Speed:
(Current/Filed)
257kts
Departed: 27-Mar-18 04:33 PM
Arrived: 27-Mar-18 05:17 PM
Distance/Time
Traveled:
138nm/0:44
Distance/Time
To Go:
Arrived

Flight Plot

Page will automatically refresh every two minutes.

Flight plan parsing failed; only flown route is shown


Map Options




Map Legend


Flown Route
Filed Route
Departure Airport
Arrival Airport
Navaid (VOR, NDB)
Fix

Horizontal Profiles

Position Reports

Time Latitude Longitude Heading Altitude Ground
Speed
27-Mar-18 16:09 48.310000 -114.251374 269 2968ft 0kts
27-Mar-18 16:10 48.310000 -114.251374 269 2968ft 0kts
27-Mar-18 16:11 48.310000 -114.251374 269 2968ft 0kts
27-Mar-18 16:12 48.310000 -114.251374 269 2968ft 0kts
27-Mar-18 16:13 48.310000 -114.251374 269 2968ft 0kts
27-Mar-18 16:14 48.310000 -114.251374 269 2968ft 0kts
27-Mar-18 16:15 48.310000 -114.251374 269 2968ft 0kts
27-Mar-18 16:16 48.310000 -114.251374 269 2968ft 0kts
27-Mar-18 16:17 48.310000 -114.251374 269 2968ft 0kts
27-Mar-18 16:18 48.310000 -114.251374 269 2968ft 0kts
27-Mar-18 16:19 48.310000 -114.251374 269 2968ft 0kts
27-Mar-18 16:20 48.310000 -114.251374 269 2968ft 0kts
27-Mar-18 16:21 48.310000 -114.251374 269 2968ft 0kts
27-Mar-18 16:22 48.310000 -114.251374 269 2968ft 0kts
27-Mar-18 16:23 48.310000 -114.251374 269 2968ft 0kts
27-Mar-18 16:24 48.310000 -114.251374 269 2968ft 0kts
27-Mar-18 16:25 48.310000 -114.251374 269 2968ft 0kts
27-Mar-18 16:26 48.310000 -114.251374 269 2968ft 0kts
27-Mar-18 16:27 48.310008 -114.252278 276 2968ft 15kts
27-Mar-18 16:28 48.316428 -114.247185 30 2974ft 21kts
27-Mar-18 16:29 48.318458 -114.245502 329 2974ft 0kts
27-Mar-18 16:30 48.318458 -114.245502 329 2974ft 0kts
27-Mar-18 16:31 48.318857 -114.246696 216 2974ft 2kts
27-Mar-18 16:32 48.306561 -114.259469 221 3263ft 128kts
27-Mar-18 16:33 48.274102 -114.235637 141 4793ft 196kts
27-Mar-18 16:34 48.231310 -114.181459 158 6668ft 201kts
27-Mar-18 16:35 48.180418 -114.171672 190 8805ft 190kts
27-Mar-18 16:36 48.142669 -114.196687 278 10802ft 155kts
27-Mar-18 16:37 48.137829 -114.260426 266 12673ft 157kts
27-Mar-18 16:38 48.130583 -114.325322 266 14686ft 159kts
27-Mar-18 16:39 48.123000 -114.390617 267 16505ft 161kts
27-Mar-18 16:40 48.115202 -114.456861 267 18098ft 163kts
27-Mar-18 16:41 48.107240 -114.523769 268 19465ft 165kts
27-Mar-18 16:42 48.098977 -114.593877 267 19988ft 191kts
27-Mar-18 16:43 48.088987 -114.676731 266 19989ft 212kts
27-Mar-18 16:44 48.078222 -114.765348 266 19988ft 219kts
27-Mar-18 16:45 48.067168 -114.855637 266 19987ft 221kts
27-Mar-18 16:46 48.056007 -114.946430 266 19985ft 222kts
27-Mar-18 16:47 48.044794 -115.037160 266 19983ft 222kts
27-Mar-18 16:48 48.033456 -115.128182 265 19982ft 224kts
27-Mar-18 16:49 48.021941 -115.219936 265 19985ft 225kts
27-Mar-18 16:50 48.010317 -115.311805 265 20018ft 225kts
27-Mar-18 16:51 47.997270 -115.403218 262 20052ft 226kts
27-Mar-18 16:52 47.980722 -115.493877 262 20070ft 227kts
27-Mar-18 16:53 47.964011 -115.584644 262 20069ft 227kts
27-Mar-18 16:54 47.947299 -115.674821 261 20079ft 227kts
27-Mar-18 16:55 47.930339 -115.766045 261 20023ft 230kts
27-Mar-18 16:56 47.913167 -115.857798 261 20023ft 230kts
27-Mar-18 16:57 47.896062 -115.948806 261 20016ft 229kts
27-Mar-18 16:58 47.878837 -116.039987 261 20016ft 228kts
27-Mar-18 16:59 47.861594 -116.130836 261 20014ft 228kts
27-Mar-18 17:00 47.844341 -116.221269 261 20015ft 227kts
27-Mar-18 17:01 47.826966 -116.311994 261 19950ft 230kts
27-Mar-18 17:02 47.808796 -116.406663 260 19074ft 243kts
27-Mar-18 17:03 47.789933 -116.504049 260 18044ft 247kts
27-Mar-18 17:04 47.771409 -116.599265 259 17043ft 250kts
27-Mar-18 17:05 47.752072 -116.698698 258 16029ft 250kts
27-Mar-18 17:06 47.732401 -116.798114 258 15039ft 251kts
27-Mar-18 17:07 47.712494 -116.897586 258 14049ft 253kts
27-Mar-18 17:08 47.692337 -116.998031 258 13009ft 256kts
27-Mar-18 17:09 47.671954 -117.099553 259 11803ft 258kts
27-Mar-18 17:10 47.656838 -117.199269 265 10642ft 256kts
27-Mar-18 17:11 47.645325 -117.303017 264 9275ft 251kts
27-Mar-18 17:12 47.636260 -117.393576 265 8181ft 192kts
27-Mar-18 17:13 47.630965 -117.460654 265 5869ft 165kts
27-Mar-18 17:14 47.613404 -117.497860 300 2853ft 140kts
27-Mar-18 17:15 47.616779 -117.519142 262 2408ft 102kts
27-Mar-18 17:16 47.615209 -117.532610 187 2377ft 5kts

Navigation Log

Ident Type
Flight plan parsing failed, navigation log unavailable